createdAt,value
2023-04-11T00:01:37.378Z,10.16
2023-04-11T00:04:20.069Z,10.15
2023-04-11T00:06:43.936Z,10.14
2023-04-11T00:09:12.577Z,10.12
2023-04-11T00:11:38.755Z,10.11
2023-04-11T00:14:17.183Z,10.10
2023-04-11T00:17:01.787Z,10.08
2023-04-11T00:19:46.113Z,10.05
2023-04-11T00:22:33.080Z,10.04
2023-04-11T00:24:59.348Z,10.03
2023-04-11T00:27:23.114Z,10.01
2023-04-11T00:29:47.188Z,10.00
2023-04-11T00:32:31.527Z,10.00
2023-04-11T00:35:05.072Z,10.00
2023-04-11T00:37:43.580Z,10.00
2023-04-11T00:40:27.390Z,9.98
2023-04-11T00:42:54.528Z,9.96
2023-04-11T00:45:18.182Z,9.95
2023-04-11T00:47:51.547Z,9.93
2023-04-11T00:50:25.963Z,9.91
2023-04-11T00:53:00.988Z,9.89
2023-04-11T00:55:37.334Z,9.87
2023-04-11T00:58:21.396Z,9.85
2023-04-11T01:00:50.897Z,9.83
2023-04-11T01:03:19.321Z,9.82
2023-04-11T01:05:53.206Z,9.80
2023-04-11T01:08:18.378Z,9.76
2023-04-11T01:10:43.253Z,9.71
2023-04-11T01:13:08.299Z,9.66
2023-04-11T01:15:32.152Z,9.60
2023-04-11T01:17:57.295Z,9.56
2023-04-11T01:20:21.638Z,9.51
2023-04-11T01:22:46.579Z,9.47
2023-04-11T01:25:11.397Z,9.41
2023-04-11T01:27:45.529Z,9.35
2023-04-11T01:30:12.647Z,9.29
2023-04-11T01:32:46.953Z,9.24
2023-04-11T01:35:22.357Z,9.18
2023-04-11T01:37:49.136Z,9.12
2023-04-11T01:40:25.384Z,9.05
2023-04-11T01:42:53.407Z,8.99
2023-04-11T01:45:26.115Z,8.93
2023-04-11T01:48:11.090Z,8.89
2023-04-11T01:50:35.524Z,8.84
2023-04-11T01:53:19.641Z,8.81
2023-04-11T01:55:46.149Z,8.77
2023-04-11T01:58:31.669Z,8.75
2023-04-11T02:00:58.545Z,8.72
2023-04-11T02:03:43.020Z,8.69
2023-04-11T02:06:16.852Z,8.65
2023-04-11T02:09:01.090Z,8.61
2023-04-11T02:11:47.590Z,8.58
2023-04-11T02:14:42.718Z,8.55
2023-04-11T02:17:17.845Z,8.52
2023-04-11T02:19:51.232Z,8.47
2023-04-11T02:22:34.739Z,8.44
2023-04-11T02:25:01.558Z,8.41
2023-04-11T02:27:35.501Z,8.38
2023-04-11T02:30:20.036Z,8.36
2023-04-11T02:33:04.309Z,8.33
2023-04-11T02:35:38.321Z,8.30
2023-04-11T02:38:13.865Z,8.29
2023-04-11T02:40:47.967Z,8.27
2023-04-11T02:43:11.401Z,8.25
2023-04-11T02:45:49.757Z,8.22
2023-04-11T02:48:34.249Z,8.19
2023-04-11T02:51:01.593Z,8.17
2023-04-11T02:53:45.657Z,8.15
2023-04-11T02:56:20.368Z,8.12
2023-04-11T02:58:52.018Z,8.08
2023-04-11T03:01:21.092Z,8.04
2023-04-11T03:03:48.056Z,8.01
2023-04-11T03:06:15.620Z,7.98
2023-04-11T03:08:40.312Z,7.96
2023-04-11T03:11:04.283Z,7.92
2023-04-11T03:13:31.456Z,7.87
2023-04-11T03:16:15.512Z,7.83
2023-04-11T03:18:59.928Z,7.77
2023-04-11T03:21:35.131Z,7.74
2023-04-11T03:24:18.761Z,7.69
2023-04-11T03:26:54.309Z,7.66
2023-04-11T03:29:20.494Z,7.62
2023-04-11T03:32:07.189Z,7.58
2023-04-11T03:34:43.673Z,7.53
2023-04-11T03:37:12.252Z,7.48
2023-04-11T03:39:35.945Z,7.45
2023-04-11T03:42:12.053Z,7.40
2023-04-11T03:44:50.097Z,7.36
2023-04-11T03:47:15.158Z,7.34
2023-04-11T03:49:41.528Z,7.30
2023-04-11T03:52:05.738Z,7.27
2023-04-11T03:54:29.368Z,7.24
2023-04-11T03:56:53.551Z,7.22
2023-04-11T03:59:19.585Z,7.20
2023-04-11T04:01:48.425Z,7.15
2023-04-11T04:04:12.252Z,7.12
2023-04-11T04:06:41.331Z,7.10
2023-04-11T04:09:05.244Z,7.08
2023-04-11T04:11:36.091Z,7.07
2023-04-11T04:14:03.018Z,7.05
2023-04-11T04:16:46.988Z,7.05
2023-04-11T04:19:11.636Z,7.03
2023-04-11T04:21:38.668Z,7.04
2023-04-11T04:24:11.914Z,7.07
2023-04-11T04:26:57.537Z,7.46
2023-04-11T04:29:55.132Z,8.39
2023-04-11T04:32:40.740Z,9.43
2023-04-11T04:35:08.468Z,10.33
2023-04-11T04:37:38.884Z,11.24
2023-04-11T04:40:12.570Z,12.17
2023-04-11T04:42:49.329Z,13.05
2023-04-11T04:45:13.551Z,13.76
2023-04-11T04:47:37.641Z,14.45
2023-04-11T04:50:04.498Z,15.23
2023-04-11T04:52:48.713Z,16.02
2023-04-11T04:55:12.131Z,16.65
2023-04-11T04:57:35.744Z,17.14
2023-04-11T05:00:00.361Z,17.59
2023-04-11T05:02:26.031Z,18.04
2023-04-11T05:04:50.034Z,18.54
2023-04-11T05:07:14.514Z,18.97
2023-04-11T05:09:38.288Z,19.30
2023-04-11T05:12:09.842Z,19.69
2023-04-11T05:14:35.048Z,20.03
2023-04-11T05:16:59.071Z,20.25
2023-04-11T05:19:22.696Z,20.52
2023-04-11T05:21:47.588Z,20.73
2023-04-11T05:24:11.390Z,20.97
2023-04-11T05:26:35.044Z,21.27
2023-04-11T05:28:59.018Z,21.55
2023-04-11T05:31:25.099Z,22.01
2023-04-11T05:33:48.700Z,22.41
2023-04-11T05:36:14.052Z,22.78
2023-04-11T05:38:37.577Z,23.22
2023-04-11T05:41:02.192Z,23.66
2023-04-11T05:43:26.238Z,24.08
2023-04-11T05:45:50.067Z,24.57
2023-04-11T05:48:16.029Z,25.11
2023-04-11T05:50:40.083Z,25.57
2023-04-11T05:53:03.561Z,25.98
2023-04-11T05:55:27.877Z,26.44
2023-04-11T05:57:51.771Z,26.59
2023-04-11T06:00:17.641Z,26.90
2023-04-11T06:02:42.545Z,27.08
2023-04-11T06:05:11.104Z,27.26
2023-04-11T06:07:35.246Z,27.52
2023-04-11T06:09:58.865Z,27.84
2023-04-11T06:12:22.652Z,28.15
2023-04-11T06:14:46.121Z,28.52
2023-04-11T06:17:09.700Z,28.77
2023-04-11T06:19:33.532Z,28.83
2023-04-11T06:21:57.238Z,28.93
2023-04-11T06:24:35.835Z,29.15
2023-04-11T06:26:59.218Z,29.22
2023-04-11T06:29:22.681Z,29.19
2023-04-11T06:31:46.166Z,28.98
2023-04-11T06:34:11.131Z,28.94
2023-04-11T06:36:36.644Z,28.95
2023-04-11T06:39:00.518Z,29.01
2023-04-11T06:41:24.435Z,28.84
2023-04-11T06:43:48.080Z,28.88
2023-04-11T06:46:12.108Z,29.05
2023-04-11T06:48:35.625Z,29.08
2023-04-11T06:50:59.269Z,29.00
2023-04-11T06:53:23.205Z,28.96
2023-04-11T06:55:49.296Z,28.88
2023-04-11T06:58:12.631Z,28.72
2023-04-11T07:00:37.252Z,28.60
2023-04-11T07:03:00.899Z,28.07
2023-04-11T07:05:25.535Z,27.73
2023-04-11T07:07:49.512Z,27.65
2023-04-11T07:10:13.015Z,27.71
2023-04-11T07:12:36.396Z,27.77
2023-04-11T07:15:00.795Z,27.78
2023-04-11T07:17:24.386Z,27.65
2023-04-11T07:19:50.808Z,27.51
2023-04-11T07:22:14.602Z,27.56
2023-04-11T07:24:38.018Z,27.51
2023-04-11T07:27:01.828Z,27.48
2023-04-11T07:29:26.372Z,27.30
2023-04-11T07:31:50.760Z,27.16
2023-04-11T07:34:14.302Z,27.11
2023-04-11T07:36:38.106Z,27.18
2023-04-11T07:39:01.592Z,27.10
2023-04-11T07:41:25.078Z,27.03
2023-04-11T07:43:48.706Z,26.92
2023-04-11T07:46:14.449Z,27.07
2023-04-11T07:48:37.980Z,27.12
2023-04-11T07:51:01.757Z,27.26
2023-04-11T07:53:26.257Z,27.41
2023-04-11T07:55:49.797Z,27.47
2023-04-11T07:58:13.577Z,27.79
2023-04-11T08:00:37.064Z,28.09
2023-04-11T08:03:04.018Z,28.19
2023-04-11T08:05:27.776Z,28.01
2023-04-11T08:07:51.303Z,27.87
2023-04-11T08:10:15.020Z,27.70
2023-04-11T08:12:38.748Z,27.52
2023-04-11T08:15:02.536Z,27.44
2023-04-11T08:17:29.006Z,27.17
2023-04-11T08:19:53.132Z,27.26
2023-04-11T08:22:17.517Z,26.81
2023-04-11T08:24:40.893Z,25.50
2023-04-11T08:27:04.963Z,24.18
2023-04-11T08:29:28.467Z,22.97
2023-04-11T08:31:51.805Z,21.54
2023-04-11T08:34:15.435Z,20.19
2023-04-11T08:36:38.936Z,19.18
2023-04-11T08:39:02.622Z,19.10
2023-04-11T08:41:30.200Z,19.47
2023-04-11T08:43:54.535Z,19.16
2023-04-11T08:46:18.482Z,19.54
2023-04-11T08:48:42.658Z,20.28
2023-04-11T08:51:07.391Z,20.95
2023-04-11T08:53:34.332Z,21.53
2023-04-11T08:55:59.207Z,21.71
2023-04-11T08:58:23.408Z,21.84
2023-04-11T09:00:47.294Z,21.76
2023-04-11T09:03:12.529Z,21.15
2023-04-11T09:05:38.217Z,21.20
2023-04-11T09:08:03.807Z,20.98
2023-04-11T09:10:28.102Z,20.61
2023-04-11T09:12:52.370Z,20.89
2023-04-11T09:15:21.113Z,21.29
2023-04-11T09:17:44.496Z,21.13
2023-04-11T09:20:16.910Z,21.10
2023-04-11T09:22:41.425Z,21.27
2023-04-11T09:25:08.658Z,21.43
2023-04-11T09:27:32.106Z,21.23
2023-04-11T09:29:56.042Z,20.66
2023-04-11T09:32:29.987Z,20.62
2023-04-11T09:35:08.634Z,20.74
2023-04-11T09:37:43.662Z,20.88
2023-04-11T09:40:09.595Z,20.21
2023-04-11T09:42:34.114Z,20.13
2023-04-11T09:44:57.884Z,20.40
2023-04-11T09:47:22.017Z,20.56
2023-04-11T09:49:46.603Z,20.60
2023-04-11T09:52:10.152Z,20.66
2023-04-11T09:54:34.545Z,20.64
2023-04-11T09:56:59.576Z,20.52
2023-04-11T09:59:26.101Z,20.22
2023-04-11T10:01:51.421Z,20.23
2023-04-11T10:04:14.972Z,20.30
2023-04-11T10:06:46.874Z,20.29
2023-04-11T10:09:12.773Z,20.15
2023-04-11T10:11:37.033Z,19.64
2023-04-11T10:14:00.676Z,19.22
2023-04-11T10:16:25.388Z,19.21
2023-04-11T10:19:23.960Z,19.26
2023-04-11T10:21:47.644Z,19.32
2023-04-11T10:24:15.694Z,19.10
2023-04-11T10:26:51.752Z,18.97
2023-04-11T10:29:48.370Z,19.06
2023-04-11T10:32:18.843Z,18.74
2023-04-11T10:35:22.371Z,18.34
2023-04-11T10:37:46.822Z,18.36
2023-04-11T10:40:10.986Z,18.41
2023-04-11T10:42:36.029Z,18.42
2023-04-11T10:45:24.142Z,18.39
2023-04-11T10:48:03.333Z,18.26
2023-04-11T10:50:41.752Z,17.99
2023-04-11T10:53:07.520Z,17.58
2023-04-11T10:55:42.055Z,17.55
2023-04-11T10:58:07.402Z,17.75
2023-04-11T11:01:13.207Z,17.78
2023-04-11T11:03:59.059Z,17.58
2023-04-11T11:06:23.865Z,17.48
2023-04-11T11:08:47.409Z,17.46
2023-04-11T11:11:12.650Z,17.33
2023-04-11T11:13:40.527Z,17.23
2023-04-11T11:16:05.954Z,17.27
2023-04-11T11:18:30.172Z,17.27
2023-04-11T11:20:56.329Z,17.11
2023-04-11T11:23:19.696Z,16.88
2023-04-11T11:25:53.561Z,16.59
2023-04-11T11:28:17.120Z,16.36
2023-04-11T11:30:52.907Z,16.24
2023-04-11T11:33:19.801Z,16.08
2023-04-11T11:35:45.797Z,15.96
2023-04-11T11:38:09.562Z,15.92
2023-04-11T11:40:33.268Z,15.87
2023-04-11T11:42:57.201Z,15.88
2023-04-11T11:45:22.930Z,16.00
2023-04-11T11:47:48.457Z,16.05
2023-04-11T11:50:23.425Z,16.09
2023-04-11T11:52:48.213Z,16.19
2023-04-11T11:55:33.048Z,16.28
2023-04-11T11:58:00.628Z,16.41
2023-04-11T12:00:26.615Z,16.53
2023-04-11T12:02:52.589Z,16.58
2023-04-11T12:05:17.300Z,16.50
2023-04-11T12:07:41.015Z,16.37
2023-04-11T12:10:16.932Z,16.26
2023-04-11T12:12:41.848Z,16.20
2023-04-11T12:15:11.327Z,16.14
2023-04-11T12:17:37.462Z,16.13
2023-04-11T12:20:05.607Z,16.18
2023-04-11T12:22:29.120Z,16.28
2023-04-11T12:24:53.251Z,16.26
2023-04-11T12:27:16.787Z,16.23
2023-04-11T12:29:40.644Z,16.17
2023-04-11T12:32:04.554Z,16.11
2023-04-11T12:34:28.110Z,16.03
2023-04-11T12:36:51.745Z,16.02
2023-04-11T12:39:16.285Z,16.05
2023-04-11T12:41:39.804Z,16.04
2023-04-11T12:44:03.480Z,16.01
2023-04-11T12:46:27.026Z,16.01
2023-04-11T12:49:01.693Z,16.01
2023-04-11T12:51:26.966Z,15.98
2023-04-11T12:53:58.830Z,15.89
2023-04-11T12:56:24.378Z,15.79
2023-04-11T12:58:51.026Z,15.70
2023-04-11T13:01:15.876Z,15.56
2023-04-11T13:03:52.963Z,15.38
2023-04-11T13:06:16.662Z,15.22
2023-04-11T13:08:53.175Z,15.09
2023-04-11T13:11:16.760Z,14.99
2023-04-11T13:14:00.709Z,14.92
2023-04-11T13:16:27.082Z,14.89
2023-04-11T13:18:50.792Z,14.88
2023-04-11T13:21:14.479Z,14.86
2023-04-11T13:23:48.681Z,14.86
2023-04-11T13:26:14.993Z,14.87
2023-04-11T13:28:41.146Z,14.84
2023-04-11T13:31:09.705Z,14.83
2023-04-11T13:33:33.448Z,14.85
2023-04-11T13:35:59.656Z,14.90
2023-04-11T13:38:24.973Z,14.92
2023-04-11T13:40:48.884Z,14.94
2023-04-11T13:43:12.594Z,14.96
2023-04-11T13:45:39.212Z,15.01
2023-04-11T13:48:03.389Z,15.01
2023-04-11T13:50:27.214Z,14.99
2023-04-11T13:52:53.665Z,14.99
2023-04-11T13:55:17.424Z,14.98
2023-04-11T13:57:46.414Z,14.96
2023-04-11T14:00:11.940Z,14.98
2023-04-11T14:02:36.186Z,15.03
2023-04-11T14:04:59.761Z,15.09
2023-04-11T14:07:32.463Z,15.12
2023-04-11T14:09:56.178Z,15.12
2023-04-11T14:12:19.485Z,15.09
2023-04-11T14:14:42.986Z,15.10
2023-04-11T14:17:06.478Z,15.12
2023-04-11T14:19:29.947Z,15.17
2023-04-11T14:21:53.663Z,15.23
2023-04-11T14:24:18.865Z,15.28
2023-04-11T14:26:42.250Z,15.31
2023-04-11T14:29:07.718Z,15.36
2023-04-11T14:31:31.299Z,15.41
2023-04-11T14:33:54.992Z,15.46
2023-04-11T14:36:18.894Z,15.48
2023-04-11T14:38:45.106Z,15.46
2023-04-11T14:41:09.754Z,15.48
2023-04-11T14:43:34.581Z,15.49
2023-04-11T14:45:58.056Z,15.49
2023-04-11T14:48:21.446Z,15.47
2023-04-11T14:50:44.831Z,15.41
2023-04-11T14:53:08.865Z,15.38
2023-04-11T14:55:32.435Z,15.28
2023-04-11T14:57:56.872Z,15.20
2023-04-11T15:00:21.817Z,15.16
2023-04-11T15:02:46.396Z,15.13
2023-04-11T15:05:11.134Z,15.13
2023-04-11T15:07:36.069Z,15.10
2023-04-11T15:09:59.617Z,15.06
2023-04-11T15:12:23.134Z,15.04
2023-04-11T15:14:46.498Z,15.03
2023-04-11T15:17:10.083Z,15.01
2023-04-11T15:19:33.800Z,15.01
2023-04-11T15:22:06.216Z,14.97
2023-04-11T15:24:30.220Z,14.91
2023-04-11T15:26:56.883Z,14.87
2023-04-11T15:29:20.487Z,14.85
2023-04-11T15:31:44.121Z,14.86
2023-04-11T15:34:13.435Z,14.84
2023-04-11T15:36:38.005Z,14.84
2023-04-11T15:39:01.416Z,14.84
2023-04-11T15:41:25.457Z,14.83
2023-04-11T15:43:48.847Z,14.80
2023-04-11T15:46:12.369Z,14.78
2023-04-11T15:48:36.360Z,14.75
2023-04-11T15:50:59.796Z,14.73
2023-04-11T15:53:23.458Z,14.72
2023-04-11T15:55:56.567Z,14.71
2023-04-11T15:58:20.031Z,14.70
2023-04-11T16:00:54.084Z,14.68
2023-04-11T16:03:18.426Z,14.66
2023-04-11T16:05:42.549Z,14.63
2023-04-11T16:08:19.228Z,14.60
2023-04-11T16:10:45.623Z,14.56
2023-04-11T16:13:11.782Z,14.50
2023-04-11T16:15:46.616Z,14.44
2023-04-11T16:18:10.350Z,14.41
2023-04-11T16:20:36.918Z,14.38
2023-04-11T16:23:03.704Z,14.36
2023-04-11T16:25:27.432Z,14.32
2023-04-11T16:27:51.304Z,14.28
2023-04-11T16:30:15.613Z,14.24
2023-04-11T16:32:40.162Z,14.22
2023-04-11T16:35:04.679Z,14.18
2023-04-11T16:37:28.493Z,14.15
2023-04-11T16:39:52.142Z,14.12
2023-04-11T16:42:15.819Z,14.10
2023-04-11T16:44:39.199Z,14.06
2023-04-11T16:47:03.032Z,14.03
2023-04-11T16:49:27.544Z,13.99
2023-04-11T16:51:52.020Z,13.94
2023-04-11T16:54:15.762Z,13.89
2023-04-11T16:56:39.478Z,13.85
2023-04-11T16:59:04.040Z,13.82
2023-04-11T17:01:27.860Z,13.80
2023-04-11T17:03:53.151Z,13.77
2023-04-11T17:06:16.999Z,13.74
2023-04-11T17:08:41.974Z,13.71
2023-04-11T17:11:06.486Z,13.68
2023-04-11T17:13:30.937Z,13.65
2023-04-11T17:15:55.515Z,13.61
2023-04-11T17:18:19.200Z,13.58
2023-04-11T17:20:47.071Z,13.56
2023-04-11T17:23:10.645Z,13.53
2023-04-11T17:25:34.427Z,13.51
2023-04-11T17:28:07.581Z,13.48
2023-04-11T17:30:31.812Z,13.45
2023-04-11T17:32:55.382Z,13.42
2023-04-11T17:35:22.516Z,13.39
2023-04-11T17:37:50.062Z,13.36
2023-04-11T17:40:14.756Z,13.32
2023-04-11T17:42:51.287Z,13.28
2023-04-11T17:45:18.944Z,13.25
2023-04-11T17:47:45.854Z,13.22
2023-04-11T17:50:12.456Z,13.19
2023-04-11T17:52:36.446Z,13.16
2023-04-11T17:55:09.816Z,13.14
2023-04-11T17:57:39.636Z,13.11
2023-04-11T18:00:04.944Z,13.09
2023-04-11T18:02:28.717Z,13.05
2023-04-11T18:04:53.399Z,13.02
2023-04-11T18:07:28.340Z,12.98
2023-04-11T18:09:51.973Z,12.96
2023-04-11T18:12:16.041Z,12.94
2023-04-11T18:14:40.362Z,12.92
2023-04-11T18:17:03.796Z,12.89
2023-04-11T18:19:29.784Z,12.86
2023-04-11T18:21:56.668Z,12.83
2023-04-11T18:24:20.257Z,12.80
2023-04-11T18:27:04.266Z,12.78
2023-04-11T18:29:27.704Z,12.75
2023-04-11T18:31:51.290Z,12.70
2023-04-11T18:34:15.464Z,12.67
2023-04-11T18:36:39.062Z,12.64
2023-04-11T18:39:02.812Z,12.62
2023-04-11T18:41:26.824Z,12.59
2023-04-11T18:43:50.700Z,12.56
2023-04-11T18:46:14.343Z,12.54
2023-04-11T18:48:41.420Z,12.51
2023-04-11T18:51:05.987Z,12.48
2023-04-11T18:53:30.272Z,12.45
2023-04-11T18:55:57.307Z,12.43
2023-04-11T18:58:26.154Z,12.39
2023-04-11T19:00:51.047Z,12.35
2023-04-11T19:03:15.846Z,12.31
2023-04-11T19:05:40.109Z,12.29
2023-04-11T19:08:03.820Z,12.25
2023-04-11T19:10:27.652Z,12.22
2023-04-11T19:12:51.292Z,12.19
2023-04-11T19:15:15.416Z,12.16
2023-04-11T19:17:39.606Z,12.12
2023-04-11T19:20:06.282Z,12.09
2023-04-11T19:22:30.251Z,12.04
2023-04-11T19:24:54.474Z,12.00
2023-04-11T19:27:18.257Z,11.96
2023-04-11T19:29:41.826Z,11.93
2023-04-11T19:32:17.190Z,11.89
2023-04-11T19:34:52.213Z,11.83
2023-04-11T19:37:36.998Z,11.77
2023-04-11T19:40:01.328Z,11.72
2023-04-11T19:42:45.680Z,11.67
2023-04-11T19:45:10.826Z,11.64
2023-04-11T19:47:34.637Z,11.60
2023-04-11T19:50:18.873Z,11.54
2023-04-11T19:52:43.344Z,11.50
2023-04-11T19:55:17.358Z,11.46
2023-04-11T19:57:44.053Z,11.42
2023-04-11T20:00:11.320Z,11.37
2023-04-11T20:02:35.525Z,11.32
2023-04-11T20:05:01.132Z,11.29
2023-04-11T20:07:24.796Z,11.24
2023-04-11T20:09:48.270Z,11.20
2023-04-11T20:12:12.494Z,11.16
2023-04-11T20:14:47.097Z,11.12
2023-04-11T20:17:24.089Z,11.09
2023-04-11T20:19:50.959Z,11.08
2023-04-11T20:22:17.734Z,11.08
2023-04-11T20:24:41.745Z,11.08
2023-04-11T20:27:05.430Z,11.09
2023-04-11T20:29:37.695Z,11.09
2023-04-11T20:32:01.833Z,11.09
2023-04-11T20:34:36.648Z,11.09
2023-04-11T20:37:12.497Z,11.08
2023-04-11T20:39:38.718Z,11.08
2023-04-11T20:42:02.418Z,11.07
2023-04-11T20:44:26.765Z,11.05
2023-04-11T20:46:50.545Z,11.04
2023-04-11T20:49:14.789Z,11.05
2023-04-11T20:51:38.992Z,11.04
2023-04-11T20:54:02.615Z,11.05
2023-04-11T20:56:26.263Z,11.05
2023-04-11T20:58:53.297Z,11.05
2023-04-11T21:01:18.988Z,11.02
2023-04-11T21:03:46.249Z,11.02
2023-04-11T21:06:10.498Z,10.99
2023-04-11T21:08:34.619Z,10.98
2023-04-11T21:10:58.084Z,10.96
2023-04-11T21:13:23.502Z,10.95
2023-04-11T21:15:47.200Z,10.94
2023-04-11T21:18:10.878Z,10.89
2023-04-11T21:20:42.132Z,10.88
2023-04-11T21:23:05.769Z,10.89
2023-04-11T21:25:29.182Z,10.84
2023-04-11T21:27:54.176Z,10.78
2023-04-11T21:30:17.651Z,10.70
2023-04-11T21:32:41.539Z,10.65
2023-04-11T21:35:08.294Z,10.59
2023-04-11T21:37:32.105Z,10.54
2023-04-11T21:39:55.853Z,10.50
2023-04-11T21:42:22.814Z,10.48
2023-04-11T21:44:46.459Z,10.46
2023-04-11T21:47:10.581Z,10.42
2023-04-11T21:49:54.580Z,10.40
2023-04-11T21:52:29.219Z,10.36
2023-04-11T21:54:52.758Z,10.31
2023-04-11T21:57:16.642Z,10.27
2023-04-11T21:59:42.673Z,10.21
2023-04-11T22:02:06.623Z,10.18
2023-04-11T22:06:57.986Z,10.14
2023-04-11T22:09:32.538Z,10.10
2023-04-11T22:11:56.193Z,10.08
2023-04-11T22:14:19.817Z,10.05
2023-04-11T22:16:48.768Z,10.04
2023-04-11T22:19:12.710Z,10.02
2023-04-11T22:21:37.649Z,9.98
2023-04-11T22:24:01.640Z,9.93
2023-04-11T22:26:29.089Z,9.88
2023-04-11T22:28:57.716Z,9.82
2023-04-11T22:31:21.522Z,9.75
2023-04-11T22:33:46.920Z,9.67
2023-04-11T22:36:11.192Z,9.62
2023-04-11T22:38:35.888Z,9.56
2023-04-11T22:41:00.969Z,9.50
2023-04-11T22:43:26.865Z,9.44
2023-04-11T22:45:53.486Z,9.38
2023-04-11T22:48:29.240Z,9.33
2023-04-11T22:50:54.964Z,9.27
2023-04-11T22:53:18.473Z,9.19
2023-04-11T22:55:42.107Z,9.14
2023-04-11T22:58:09.478Z,9.09
2023-04-11T23:00:37.532Z,9.03
2023-04-11T23:03:04.569Z,8.96
2023-04-11T23:05:28.590Z,8.90
2023-04-11T23:08:07.334Z,8.84
2023-04-11T23:10:31.622Z,8.80
2023-04-11T23:12:55.368Z,8.76
2023-04-11T23:15:22.268Z,8.73
2023-04-11T23:17:49.218Z,8.70
2023-04-11T23:20:36.496Z,8.68
2023-04-11T23:23:12.866Z,8.68
2023-04-11T23:25:40.020Z,8.67
2023-04-11T23:28:03.465Z,8.69
2023-04-11T23:30:48.045Z,8.70
2023-04-11T23:33:12.539Z,8.71
2023-04-11T23:35:36.391Z,8.72
2023-04-11T23:38:01.382Z,8.73
2023-04-11T23:40:24.845Z,8.73
2023-04-11T23:42:48.311Z,8.75
2023-04-11T23:45:14.381Z,8.75
2023-04-11T23:47:38.139Z,8.73
2023-04-11T23:50:11.566Z,8.72
2023-04-11T23:52:47.281Z,8.70
2023-04-11T23:55:21.885Z,8.68
2023-04-11T23:58:06.262Z,8.68
